createdAt,value
2018-05-17T00:03:52.975Z,3.01
2018-05-17T00:05:53.682Z,3.64
2018-05-17T00:09:55.069Z,3.51
2018-05-17T00:15:56.391Z,3.83
2018-05-17T00:19:57.767Z,3.54
2018-05-17T00:25:59.125Z,2.95
2018-05-17T00:32:00.579Z,2.97
2018-05-17T00:36:02.014Z,3.01
2018-05-17T00:42:03.392Z,2.83
2018-05-17T00:46:05.606Z,3.17
2018-05-17T00:52:06.368Z,3.09
2018-05-17T00:58:07.034Z,3.88
2018-05-17T01:02:07.813Z,3.32
2018-05-17T01:08:08.632Z,4.28
2018-05-17T01:12:09.390Z,4.22
2018-05-17T01:14:10.129Z,3.86
2018-05-17T01:18:10.947Z,4.06
2018-05-17T01:24:11.708Z,4.28
2018-05-17T01:28:12.489Z,3.81
2018-05-17T01:34:13.243Z,4.19
2018-05-17T01:40:13.987Z,4.5
2018-05-17T01:44:14.709Z,4.17
2018-05-17T01:50:15.503Z,4.14
2018-05-17T01:54:16.337Z,3.84
2018-05-17T02:00:17.444Z,3.69
2018-05-17T02:06:18.116Z,3.65
2018-05-17T02:10:18.863Z,3.3
2018-05-17T02:16:19.611Z,3.92
2018-05-17T02:20:20.348Z,3.74
2018-05-17T02:22:21.108Z,3.57
2018-05-17T02:26:21.828Z,3.61
2018-05-17T02:32:22.777Z,3.41
2018-05-17T02:36:23.578Z,3.29
2018-05-17T02:42:24.318Z,3.25
2018-05-17T02:48:25.323Z,4.07
2018-05-17T02:52:25.990Z,3.5
2018-05-17T02:58:26.792Z,3.65
2018-05-17T03:02:27.537Z,3.34
2018-05-17T03:08:28.272Z,3.97
2018-05-17T03:14:29.029Z,4.15
2018-05-17T03:18:29.869Z,4.03
2018-05-17T03:24:30.621Z,4.07
2018-05-17T03:28:31.403Z,3.92
2018-05-17T03:30:32.349Z,3.67
2018-05-17T03:34:33.090Z,3.39
2018-05-17T03:40:33.819Z,4.54
2018-05-17T03:44:34.567Z,3.78
2018-05-17T03:50:35.267Z,4.51
2018-05-17T03:56:36.086Z,4.62
2018-05-17T04:00:36.755Z,4.21
2018-05-17T04:06:37.606Z,4.71
2018-05-17T04:10:38.277Z,4.92
2018-05-17T04:12:38.961Z,5.23
2018-05-17T04:16:39.728Z,5.32
2018-05-17T04:22:40.510Z,7.18
2018-05-17T04:26:41.262Z,6.38
2018-05-17T04:32:41.968Z,5.53
2018-05-17T04:38:42.832Z,6.47
2018-05-17T04:42:43.653Z,6.05
2018-05-17T04:48:44.386Z,6.09
2018-05-17T04:52:45.146Z,5.79
2018-05-17T04:58:47.495Z,5.59
2018-05-17T05:04:48.246Z,6.44
2018-05-17T05:08:48.979Z,6.14
2018-05-17T05:14:49.779Z,6.3
2018-05-17T05:18:50.458Z,6.27
2018-05-17T05:20:51.174Z,6.55
2018-05-17T05:24:51.894Z,7.2
2018-05-17T05:30:52.665Z,7.29
2018-05-17T05:34:53.562Z,7.28
2018-05-17T05:40:54.196Z,8.3
2018-05-17T05:46:54.944Z,6.72
2018-05-17T05:50:55.663Z,7.94
2018-05-17T05:56:56.435Z,7.95
2018-05-17T06:00:57.205Z,7.13
2018-05-17T06:02:58.324Z,8.31
2018-05-17T06:06:59.220Z,8.48
2018-05-17T06:12:59.995Z,9.53
2018-05-17T06:17:00.900Z,9.35
2018-05-17T06:23:01.703Z,9.05
2018-05-17T06:27:02.424Z,9.43
2018-05-17T06:29:03.235Z,8.74
2018-05-17T06:33:04.019Z,8.71
2018-05-17T06:39:09.441Z,9.25
2018-05-17T06:43:10.396Z,8.99
2018-05-17T06:49:11.087Z,9.69
2018-05-17T06:55:11.861Z,9.12
2018-05-17T06:59:12.595Z,9.26
2018-05-17T07:05:13.420Z,9.4
2018-05-17T07:09:14.130Z,10.46
2018-05-17T07:15:15.246Z,12.75
2018-05-17T07:21:15.972Z,10.08
2018-05-17T07:25:16.704Z,10.41
2018-05-17T07:31:17.471Z,9.76
2018-05-17T07:35:18.142Z,9.75
2018-05-17T07:37:18.807Z,9.96
2018-05-17T07:41:19.516Z,10.08
2018-05-17T07:47:20.395Z,8.77
2018-05-17T07:51:21.478Z,7.52
2018-05-17T07:57:22.153Z,7.97
2018-05-17T08:03:23.006Z,9.22
2018-05-17T08:07:23.667Z,8.97
2018-05-17T08:13:24.529Z,7.03
2018-05-17T08:17:25.415Z,7.13
2018-05-17T08:19:26.142Z,6.75
2018-05-17T08:23:26.903Z,6.24
2018-05-17T08:29:27.685Z,7.16
2018-05-17T08:33:28.409Z,6.97
2018-05-17T08:39:29.258Z,7.41
2018-05-17T08:43:30.290Z,6.89
2018-05-17T08:45:31.143Z,8.23
2018-05-17T08:49:31.902Z,7.97
2018-05-17T08:55:32.662Z,7.13
2018-05-17T08:59:33.472Z,7.02
2018-05-17T09:05:34.321Z,5.88
2018-05-17T09:11:35.028Z,6.45
2018-05-17T09:15:36.044Z,5.52
2018-05-17T09:21:36.772Z,6.79
2018-05-17T09:25:37.570Z,6.01
2018-05-17T09:27:38.205Z,6.2
2018-05-17T09:31:38.933Z,6.66
2018-05-17T09:37:39.745Z,6.04
2018-05-17T09:41:40.572Z,6.19
2018-05-17T09:47:41.331Z,6.09
2018-05-17T09:53:51.270Z,6.18
2018-05-17T09:57:52.463Z,5.92
2018-05-17T10:03:53.179Z,5.22
2018-05-17T10:07:53.968Z,5.95
2018-05-17T10:13:54.653Z,6.46
2018-05-17T10:19:55.514Z,6.44
2018-05-17T10:23:56.257Z,5.64
2018-05-17T10:29:57.067Z,5.41
2018-05-17T10:33:57.793Z,5.32
2018-05-17T10:39:58.529Z,4.54
2018-05-17T10:45:59.339Z,4.86
2018-05-17T10:50:00.228Z,4.55
2018-05-17T10:56:00.900Z,4.59
2018-05-17T11:00:01.660Z,4.5
2018-05-17T11:02:02.305Z,5.92
2018-05-17T11:06:03.069Z,5.8
2018-05-17T11:12:03.777Z,4.86
2018-05-17T11:16:04.446Z,5.06
2018-05-17T11:22:05.232Z,5.38
2018-05-17T11:28:06.448Z,5.28
2018-05-17T11:32:07.351Z,4.92
2018-05-17T11:38:08.157Z,5.49
2018-05-17T11:42:12.900Z,5.35
2018-05-17T11:48:13.563Z,4.16
2018-05-17T11:54:14.320Z,5.05
2018-05-17T11:58:15.136Z,4.53
2018-05-17T12:04:16.000Z,6.25
2018-05-17T12:08:17.462Z,5.18
2018-05-17T12:10:18.223Z,5.61
2018-05-17T12:14:19.078Z,5.21
2018-05-17T12:20:19.975Z,5.8
2018-05-17T12:24:21.132Z,6.33
2018-05-17T12:30:22.450Z,5.86
2018-05-17T12:36:23.275Z,4.44
2018-05-17T12:40:23.940Z,4.37
2018-05-17T12:46:24.766Z,4.71
2018-05-17T12:50:26.139Z,4.92
2018-05-17T12:56:27.066Z,4.02
2018-05-17T13:02:27.755Z,4.09
2018-05-17T13:06:28.532Z,4.08
2018-05-17T13:12:29.741Z,3.59
2018-05-17T13:16:30.426Z,3.83
2018-05-17T13:18:31.110Z,3.57
2018-05-17T13:22:31.846Z,2.81
2018-05-17T13:28:32.590Z,3.77
2018-05-17T13:32:33.333Z,3.24
2018-05-17T13:38:34.048Z,3.2
2018-05-17T13:44:34.883Z,2.87
2018-05-17T13:48:35.616Z,2.75
2018-05-17T13:54:36.413Z,3.49
2018-05-17T13:58:37.277Z,3.33
2018-05-17T14:00:38.094Z,3.12
2018-05-17T14:04:38.821Z,2.99
2018-05-17T14:10:39.668Z,3.11
2018-05-17T14:14:40.462Z,3.24
2018-05-17T14:20:41.367Z,3.69
2018-05-17T14:24:42.060Z,3.46
2018-05-17T14:26:42.813Z,3.32
2018-05-17T14:30:43.851Z,3.1
2018-05-17T14:36:44.663Z,3.01
2018-05-17T14:40:45.510Z,3.02
2018-05-17T14:46:46.249Z,3.97
2018-05-17T14:52:47.029Z,3.55
2018-05-17T14:56:47.778Z,3.5
2018-05-17T15:02:48.661Z,3.1
2018-05-17T15:06:49.482Z,2.89
2018-05-17T15:08:50.238Z,3.2
2018-05-17T15:12:51.021Z,2.99
2018-05-17T15:18:52.111Z,2.97
2018-05-17T15:22:52.931Z,2.7
2018-05-17T15:28:53.666Z,2.98
2018-05-17T15:34:54.395Z,3
2018-05-17T15:38:55.066Z,2.51
2018-05-17T15:44:55.899Z,3.02
2018-05-17T15:48:56.615Z,2.69
2018-05-17T15:54:57.352Z,4.83
2018-05-17T16:00:58.103Z,3.84
2018-05-17T16:04:58.838Z,4.02
2018-05-17T16:10:59.633Z,3.1
2018-05-17T16:15:00.682Z,2.63
2018-05-17T16:17:01.164Z,4.2
2018-05-17T16:21:01.915Z,10.54
2018-05-17T16:27:02.897Z,4.29
2018-05-17T16:31:03.727Z,2.79
2018-05-17T16:37:04.570Z,3.26
2018-05-17T16:43:05.271Z,3.26
2018-05-17T16:47:06.074Z,3.19
2018-05-17T16:53:06.922Z,3.47
2018-05-17T16:57:07.762Z,2.69
2018-05-17T16:59:08.446Z,3.13
2018-05-17T17:03:09.182Z,3.46
2018-05-17T17:09:10.031Z,2.86
2018-05-17T17:13:10.835Z,2.52
2018-05-17T17:19:11.564Z,4.04
2018-05-17T17:23:12.348Z,3.13
2018-05-17T17:25:13.049Z,4.15
2018-05-17T17:29:13.891Z,3.76
2018-05-17T17:35:14.730Z,3.27
2018-05-17T17:39:15.406Z,3.82
2018-05-17T17:45:16.453Z,3.45
2018-05-17T17:51:17.338Z,3.69
2018-05-17T17:55:18.071Z,3.1
2018-05-17T18:01:18.922Z,4.03
2018-05-17T18:05:19.721Z,3.37
2018-05-17T18:07:20.497Z,4.04
2018-05-17T18:11:21.362Z,3.63
2018-05-17T18:17:22.096Z,4.29
2018-05-17T18:21:22.823Z,3.98
2018-05-17T18:27:23.622Z,4.45
2018-05-17T18:31:24.440Z,4.38
2018-05-17T18:33:25.139Z,4.38
2018-05-17T18:37:25.843Z,4.13
2018-05-17T18:43:26.629Z,4.69
2018-05-17T18:47:27.411Z,5.19
2018-05-17T18:53:28.307Z,4.15
2018-05-17T18:59:29.172Z,4.85
2018-05-17T19:03:29.890Z,4.63
2018-05-17T19:09:30.690Z,4.41
2018-05-17T19:13:31.421Z,4.03
2018-05-17T19:15:32.157Z,4.44
2018-05-17T19:19:33.013Z,4.43
2018-05-17T19:25:33.876Z,4.64
2018-05-17T19:29:34.624Z,4.7
2018-05-17T19:35:35.814Z,5.06
2018-05-17T19:41:36.720Z,6.28
2018-05-17T19:45:37.564Z,5.22
2018-05-17T19:51:38.515Z,8.07
2018-05-17T19:55:39.383Z,8.26
2018-05-17T20:01:40.286Z,5.99
2018-05-17T20:07:41.169Z,9.53
2018-05-17T20:11:42.017Z,8.44
2018-05-17T20:17:42.963Z,5.49
2018-05-17T20:21:43.843Z,5.33
2018-05-17T20:23:44.650Z,6.11
2018-05-17T20:27:45.364Z,5.77
2018-05-17T20:33:46.173Z,6
2018-05-17T20:37:46.931Z,6.12
2018-05-17T20:43:47.780Z,8.44
2018-05-17T20:49:48.568Z,8.03
2018-05-17T20:53:49.443Z,7.3
2018-05-17T20:59:50.177Z,7.11
2018-05-17T21:03:51.044Z,7.37
2018-05-17T21:05:51.718Z,7.73
2018-05-17T21:09:52.548Z,7.74
2018-05-17T21:15:53.419Z,8.12
2018-05-17T21:19:54.302Z,8.34
2018-05-17T21:25:54.979Z,7.8
2018-05-17T21:29:55.798Z,7.27
2018-05-17T21:31:56.550Z,7.31
2018-05-17T21:35:57.373Z,6.88
2018-05-17T21:41:58.055Z,6.11
2018-05-17T21:45:58.810Z,5.22
2018-05-17T21:51:59.599Z,5.93
2018-05-17T21:58:00.362Z,8.05
2018-05-17T22:02:01.295Z,7.59
2018-05-17T22:08:02.208Z,7.52
2018-05-17T22:12:03.063Z,7.22
2018-05-17T22:14:03.739Z,7.86
2018-05-17T22:18:04.452Z,7.67
2018-05-17T22:24:05.288Z,7.88
2018-05-17T22:28:06.054Z,7.47
2018-05-17T22:34:06.749Z,6.79
2018-05-17T22:40:07.492Z,7.34
2018-05-17T22:44:08.099Z,6.97
2018-05-17T22:50:08.822Z,6.67
2018-05-17T22:54:09.637Z,5.99
2018-05-17T23:00:10.419Z,6.42
2018-05-17T23:06:11.120Z,6.42
2018-05-17T23:10:11.979Z,6.78
2018-05-17T23:16:12.735Z,7.12
2018-05-17T23:20:13.659Z,6.13
2018-05-17T23:22:14.265Z,6.52
2018-05-17T23:26:15.019Z,6.46
2018-05-17T23:32:15.811Z,6.15
2018-05-17T23:36:16.636Z,5.73
2018-05-17T23:42:17.398Z,6.05
2018-05-17T23:48:18.152Z,5.65
2018-05-17T23:52:19.017Z,5.47
2018-05-17T23:58:19.947Z,6.38
